Flight Track Log - Related Links

Times and Time Zones

All times are in EDT time to prevent confusion due to time zone crossing. See the VOZ187 flight status page for this flight to view local times or setup timezone preferences in your user account.

Time Position Orientation Groundspeed Altitude Reporting Facility
EDT Latitude Longitude Course Direction KTS MPH feet Rate Location/Type
Sun 04:45:03 PM -33.2370 159.7073 318° Northwest 36,000  Level Aus ATC (Calculated)
Sun 04:45:13 PM -33.2370 159.7073 318° Northwest 36,000  Level Aus ATC (Calculated)
Sun 04:47:00 PM -33.1041 159.5438 314° West  Level Estimated
Sun 04:47:34 PM -33.0233 159.4788 318° Northwest 36,000  Level Aus ATC (Calculated)
Sun 04:48:13 PM -32.9519 159.4028 318° Northwest 36,000  Level Aus ATC (Calculated)
Sun 04:48:13 PM -32.9519 159.4028 318° Northwest 36,000  Level Aus ATC (Calculated)
Sun 04:50:00 PM -32.8023 159.2441 318° Northwest  Level FlightAware Approximate
Sun 04:51:00 PM -32.7183 159.1553 318° Northwest  Level FlightAware Approximate
Sun 04:52:00 PM -32.6342 159.0667 318° Northwest  Level FlightAware Approximate
Sun 04:52:00 PM -32.5945 159.0249 318° Northwest 36,000  Level Aus ATC (Calculated)
Sun 04:52:17 PM -32.5945 159.0249 318° Northwest 36,000  Level Aus ATC (Calculated)
Sun 04:53:00 PM -32.5104 158.9366 318° Northwest  Level FlightAware Approximate
Sun 04:54:00 PM -32.4508 158.8741 318° Northwest  Level FlightAware Approximate
Sun 04:55:00 PM -32.3670 158.7865 319° Northwest  Level FlightAware Approximate
Sun 04:56:00 PM -32.2831 158.6990 319° Northwest  Level FlightAware Approximate
Sun 04:57:00 PM -32.1992 158.6117 319° Northwest  Level FlightAware Approximate
Sun 04:58:00 PM -32.1152 158.5246 319° Northwest  Level FlightAware Approximate
Sun 04:59:00 PM -32.0311 158.4376 319° Northwest  Level FlightAware Approximate
Sun 05:00:00 PM -31.9470 158.3508 319° Northwest  Level FlightAware Approximate
Sun 05:01:00 PM -31.8628 158.2642 319° Northwest  Level FlightAware Approximate
Sun 05:02:00 PM -31.7786 158.1777 319° Northwest  Level FlightAware Approximate
Sun 05:03:00 PM -31.6943 158.0913 319° Northwest  Level FlightAware Approximate
Sun 05:04:00 PM -31.6100 158.0052 319° Northwest  Level FlightAware Approximate
Sun 05:05:00 PM -31.5256 157.9191 319° Northwest  Level FlightAware Approximate
Sun 05:06:00 PM -31.4411 157.8333 319° Northwest  Level FlightAware Approximate
Sun 05:07:00 PM -31.3566 157.7475 319° Northwest  Level FlightAware Approximate
Sun 05:08:00 PM -31.2720 157.6620 319° Northwest  Level FlightAware Approximate
Sun 05:09:00 PM -31.1874 157.5766 319° Northwest  Level FlightAware Approximate
Sun 05:10:00 PM -31.1108 157.4815 319° Northwest  Level Estimated
Sun 05:11:00 PM -31.0255 157.3970 320° Northwest  Level FlightAware Approximate
Sun 05:12:00 PM -30.9402 157.3128 320° Northwest  Level FlightAware Approximate
Sun 05:13:00 PM -30.8549 157.2287 320° Northwest  Level FlightAware Approximate
Sun 05:13:03 PM -30.6325 157.0218 319° Northwest 34,000  Level Aus ATC (Calculated)
Sun 05:15:00 PM -30.4666 156.8576 320° Northwest  Level FlightAware Approximate
Sun 05:15:04 PM -30.4818 156.8726 319° Northwest 34,000  Level Aus ATC (Calculated)
Sun 05:17:00 PM -30.3163 156.7095 320° Northwest  Level FlightAware Approximate
Sun 05:17:03 PM -30.2554 156.6496 140° Southeast 34,000  Level Aus ATC (Calculated)
Sun 05:19:00 PM -30.0882 156.4859 320° Northwest  Level FlightAware Approximate
Sun 05:20:00 PM -30.0023 156.4021 320° Northwest  Level FlightAware Approximate
Sun 05:21:00 PM -29.9164 156.3185 320° Northwest  Level FlightAware Approximate
Sun 05:22:00 PM -29.8305 156.2350 320° Northwest  Level FlightAware Approximate
Sun 05:23:00 PM -29.7445 156.1517 320° Northwest  Level FlightAware Approximate
Sun 05:24:00 PM -29.7844 156.1904 320° Northwest  Level FlightAware Approximate
Sun 05:25:00 PM -29.6984 156.1071 320° Northwest  Level FlightAware Approximate
Sun 05:26:00 PM -29.6123 156.0240 320° Northwest  Level FlightAware Approximate
Sun 05:26:12 PM -29.4155 155.8347 140° Southeast 34,000  Level Aus ATC (Calculated)
Sun 05:28:00 PM -29.2602 155.6861 320° Northwest  Level FlightAware Approximate
Sun 05:29:00 PM -29.1739 155.6037 320° Northwest  Level FlightAware Approximate
Sun 05:30:00 PM -29.0875 155.5214 320° Northwest  Level FlightAware Approximate
Sun 05:30:10 PM -29.0839 155.5180 140° Southeast 34,000  Level Aus ATC (Calculated)
Sun 05:32:00 PM -28.9254 155.3676 320° Northwest  Level FlightAware Approximate
Sun 05:33:00 PM -28.8388 155.2857 320° Northwest  Level FlightAware Approximate
Sun 05:34:00 PM -28.9254 155.3676 140° Southeast  Level FlightAware Approximate
Sun 05:35:00 PM -28.8670 155.3124 320° Northwest  Level FlightAware Approximate
Sun 05:35:10 PM -28.6130 155.0730 140° Southeast 16,900  Level Aus ATC (Calculated)
Sun 05:36:33 PM -28.4822 154.9503 141° Southeast 16,900 1,283 Level Aus ATC (Calculated)
Sun 05:36:33 PM -28.4822 154.9504 141° Southeast 16,900 1,415 Level Aus ATC (Calculated)
Sun 05:38:00 PM -28.3564 154.8327 321° Northwest  Level FlightAware Approximate
Sun 05:39:00 PM -28.2695 154.7517 321° Northwest  Level FlightAware Approximate
Sun 05:40:00 PM -28.1826 154.6709 321° Northwest  Level FlightAware Approximate
Sun 05:41:00 PM -28.0956 154.5902 321° Northwest  Level FlightAware Approximate
Sun 05:42:00 PM -28.0086 154.5096 321° Northwest  Level FlightAware Approximate
Sun 05:43:00 PM -27.9216 154.4292 321° Northwest  Level FlightAware Approximate
Sun 05:44:00 PM -27.8345 154.3488 321° Northwest  Level FlightAware Approximate
Sun 05:45:00 PM -27.7474 154.2687 321° Northwest  Level FlightAware Approximate
Sun 05:46:00 PM -27.6602 154.1886 321° Northwest  Level FlightAware Approximate
Sun 05:47:00 PM -27.5729 154.1087 321° Northwest  Level FlightAware Approximate
Sun 05:48:00 PM -27.4856 154.0289 321° Northwest  Level FlightAware Approximate
Sun 05:49:00 PM -27.5729 154.1087 141° Southeast  Level FlightAware Approximate
Sun 05:50:00 PM -27.4856 154.0289 321° Northwest  Level FlightAware Approximate
Sun 05:50:03 PM -30.3540 156.7460 321° Northwest 420 483 36,000  Level FlightAware ADS-B
Sun 05:50:38 PM -30.3080 156.7000 319° Northwest 420 483 36,000  Level FlightAware ADS-B
Sun 05:51:28 PM -30.2450 156.6370 319° Northwest 420 483 36,000  Level FlightAware ADS-B
Sun 05:52:08 PM -30.1960 156.5870 319° Northwest 420 483 36,000  Level FlightAware ADS-B
Sun 05:52:48 PM -30.1460 156.5370 319° Northwest 420 483 36,000  Level FlightAware ADS-B
Sun 05:53:28 PM -30.0960 156.4870 319° Northwest 420 483 36,000  Level FlightAware ADS-B
Sun 05:54:08 PM -30.0460 156.4370 319° Northwest 420 483 36,000  Level FlightAware ADS-B
Sun 05:54:58 PM -29.9840 156.3740 319° Northwest 420 483 36,000  Level FlightAware ADS-B
Sun 05:55:38 PM -29.9340 156.3240 319° Northwest 420 483 36,000  Level FlightAware ADS-B
Sun 05:56:23 PM -29.7960 156.2000 322° Northwest 418 481 36,000  Level FlightAware ADS-B
Sun 05:56:53 PM -29.7590 156.1630 319° Northwest 418 481 36,000  Level FlightAware ADS-B
Sun 05:57:58 PM -29.6580 156.0670 320° Northwest 416 479 36,000  Level FlightAware ADS-B
Sun 05:58:38 PM -29.6080 156.0170 319° Northwest 416 479 36,000  Level FlightAware ADS-B
Sun 05:59:33 PM -29.5120 155.9270 321° Northwest 407 468 36,000  Level FlightAware ADS-B
Sun 06:00:13 PM -29.4550 155.8720 320° Northwest 412 474 36,000  Level FlightAware ADS-B
Sun 06:00:58 PM -29.3950 155.8150 320° Northwest 412 474 36,000  Level FlightAware ADS-B
Sun 06:01:33 PM -29.3350 155.7580 320° Northwest 412 474 36,000  Level FlightAware ADS-B
Sun 06:02:23 PM -29.2600 155.6860 320° Northwest 411 473 36,000  Level FlightAware ADS-B
Sun 06:03:08 PM -29.1960 155.6240 320° Northwest 411 473 36,000  Level FlightAware ADS-B
Sun 06:03:43 PM -29.1470 155.5790 321° Northwest 397 457 36,000  Level FlightAware ADS-B
Sun 06:04:33 PM -29.0770 155.5110 320° Northwest 369 425 36,000  Level FlightAware ADS-B
Sun 06:05:13 PM -29.0250 155.4620 321° Northwest 368 423 36,000  Level FlightAware ADS-B
Sun 06:05:48 PM -28.9820 155.4210 320° Northwest 368 423 36,000  Level FlightAware ADS-B
Sun 06:06:33 PM -28.9210 155.3630 320° Northwest 367 422 36,000  Level FlightAware ADS-B
Sun 06:07:18 PM -28.8600 155.3060 321° Northwest 369 425 36,000  Level FlightAware ADS-B
Sun 06:08:03 PM -28.7920 155.2680 334° Northwest 380 437 36,000  Level FlightAware ADS-B
Sun 06:08:53 PM -28.7070 155.2320 340° North 380 437 36,000  Level FlightAware ADS-B
Sun 06:09:38 PM -28.6340 155.2010 340° North 379 436 36,000  Level FlightAware ADS-B
Sun 06:10:13 PM -28.5740 155.1750 339° North 380 437 36,000  Level FlightAware ADS-B
Sun 06:10:58 PM -28.4980 155.1430 340° North 381 438 36,000  Level FlightAware ADS-B
Sun 06:11:43 PM -28.4300 155.1140 339° North 380 437 36,000  Level FlightAware ADS-B
Sun 06:12:28 PM -28.3510 155.0810 340° North 380 437 36,000  Level FlightAware ADS-B
Sun 06:13:23 PM -28.2620 155.0450 340° North 380 437 36,000  Level FlightAware ADS-B
Sun 06:14:07 PM -28.1890 155.0150 340° North 374 430 36,000  Level FlightAware ADS-B
Sun 06:14:43 PM -28.1300 154.9900 340° North 377 434 36,000  Level FlightAware ADS-B
Sun 06:15:23 PM -28.0590 154.9600 340° North 378 435 36,000  Level FlightAware ADS-B
Sun 06:16:13 PM -27.9750 154.9240 339° North 380 437 36,000  Level FlightAware ADS-B
Sun 06:16:53 PM -27.9150 154.8980 339° North 387 445 36,000 -75 Level FlightAware ADS-B
Sun 06:17:33 PM -27.8460 154.8690 340° North 379 436 35,900 -1,050 Descending FlightAware ADS-B
Sun 06:18:13 PM -27.7740 154.8380 339° North 379 436 34,600 -1,694 Descending FlightAware ADS-B
Sun 06:18:58 PM -27.7060 154.8070 338° Northwest 365 420 33,500 -1,553 Descending FlightAware ADS-B
Sun 06:19:38 PM -27.6420 154.7770 337° Northwest 352 405 32,400 -1,650 Descending FlightAware ADS-B
Sun 06:20:18 PM -27.5840 154.7510 338° Northwest 347 399 31,300 -1,624 Descending FlightAware ADS-B
Sun 06:21:03 PM -27.5110 154.7160 337° Northwest 346 398 30,100 -1,520 Descending FlightAware ADS-B
Sun 06:21:33 PM -27.4780 154.6900 325° Northwest 320 368 29,400 -1,629 Descending FlightAware ADS-B
Sun 06:22:13 PM -27.4510 154.6290 296° West 317 365 28,200 -1,694 Descending FlightAware ADS-B
Sun 06:22:58 PM -27.4250 154.5630 294° West 312 359 27,000 -1,636 Descending FlightAware ADS-B
Sun 06:23:08 PM -27.4240 154.5470 274° West 308 354 26,700 -1,650 Descending FlightAware ADS-B
Sun 06:23:38 PM -27.4410 154.5040 246° West 298 343 25,900 -1,754 Descending FlightAware ADS-B
Sun 06:24:13 PM -27.4740 154.4580 231° Southwest 303 349 24,800 -1,553 Descending FlightAware ADS-B
Sun 06:25:03 PM -27.5170 154.4010 230° Southwest 290 334 23,700 -1,333 Descending FlightAware ADS-B
Sun 06:25:43 PM -27.5520 154.3550 229° Southwest 284 327 22,800 -1,385 Descending FlightAware ADS-B
Sun 06:26:08 PM -27.5710 154.3230 236° Southwest 283 326 22,200 -1,350 Descending FlightAware ADS-B
Sun 06:26:23 PM -27.5740 154.3050 259° West 282 325 21,900 -1,543 Descending FlightAware ADS-B
Sun 06:26:43 PM -27.5680 154.2730 282° West 283 326 21,300 -1,600 Descending FlightAware ADS-B
Sun 06:27:23 PM -27.5550 154.2150 284° West 281 323 20,300 -1,341 Descending FlightAware ADS-B
Sun 06:28:08 PM -27.5410 154.1520 284° West 273 314 19,400 -1,694 Descending FlightAware ADS-B
Sun 06:28:48 PM -27.5280 154.0980 285° West 291 335 17,900 -2,400 Descending FlightAware ADS-B
Sun 06:29:28 PM -27.5160 154.0340 282° West 308 354 16,200 -1,976 Descending FlightAware ADS-B
Sun 06:30:13 PM -27.5040 153.9640 281° West 302 348 15,100 -1,553 Descending FlightAware ADS-B
Sun 06:30:53 PM -27.4940 153.9070 281° West 299 344 14,000 -1,694 Descending FlightAware ADS-B
Sun 06:31:38 PM -27.4830 153.8350 280° West 299 344 12,700 -1,624 Descending FlightAware ADS-B
Sun 06:32:18 PM -27.4730 153.7750 281° West 299 344 11,700 -1,575 Descending FlightAware ADS-B
Sun 06:32:58 PM -27.4630 153.7140 280° West 302 348 10,600 -1,629 Descending FlightAware ADS-B
Sun 06:33:28 PM -27.4550 153.6650 280° West 301 346 9,800 -1,527 Descending FlightAware ADS-B
Sun 06:33:53 PM -27.4490 153.6290 281° West 297 342 9,200 -1,418 Descending FlightAware ADS-B
Sun 06:34:23 PM -27.4410 153.5820 281° West 297 342 8,500 -1,400 Descending FlightAware ADS-B
Sun 06:34:53 PM -27.4330 153.5360 281° West 294 338 7,800 -1,309 Descending FlightAware ADS-B
Sun 06:35:18 PM -27.4210 153.5010 291° West 288 331 7,300 -873 Descending FlightAware ADS-B
Sun 06:35:48 PM -27.3930 153.4700 315° West 285 328 7,000 -700 Descending FlightAware ADS-B
Sun 06:36:18 PM -27.3650 153.4410 317° Northwest 277 319 6,600 -873 Descending FlightAware ADS-B
Sun 06:36:43 PM -27.3410 153.4150 316° Northwest 271 312 6,200 -982 Descending FlightAware ADS-B
Sun 06:37:13 PM -27.3140 153.3870 317° Northwest 266 306 5,700 -1,091 Descending FlightAware ADS-B
Sun 06:37:38 PM -27.2920 153.3650 318° Northwest 262 302 5,200 -1,091 Descending FlightAware ADS-B
Sun 06:38:08 PM -27.2660 153.3380 317° Northwest 257 296 4,700 -1,000 Descending FlightAware ADS-B
Sun 06:38:38 PM -27.2350 153.3130 324° Northwest 253 291 4,200 -764 Descending FlightAware ADS-B
Sun 06:39:03 PM -27.2140 153.2920 318° Northwest 241 277 4,000 -600 Descending FlightAware ADS-B
Sun 06:39:18 PM -27.2080 153.2760 293° West 231 266 3,800 -750 Descending FlightAware ADS-B
Sun 06:39:43 PM -27.2100 153.2470 266° West 217 250 3,500 -750 Descending FlightAware ADS-B
Sun 06:39:58 PM -27.2140 153.2300 255° West 206 237 3,300 -1,000 Descending FlightAware ADS-B
Sun 06:40:13 PM -27.2230 153.2200 225° Southwest 195 224 3,000 -1,067 Descending FlightAware ADS-B
Sun 06:40:43 PM -27.2480 153.2060 206° Southwest 193 222 2,500 -1,067 Descending FlightAware ADS-B
Sun 06:40:58 PM -27.2600 153.2000 204° Southwest 189 217 2,200 -1,050 Descending FlightAware ADS-B
Sun 06:41:23 PM -27.2790 153.1890 207° Southwest 185 213 1,800 -900 Descending FlightAware ADS-B
Sun 06:41:38 PM -27.2900 153.1830 206° Southwest 178 205 1,600 -933 Descending FlightAware ADS-B
Sun 06:42:08 PM -27.3120 153.1700 208° Southwest 165 190 1,100 -873 Descending FlightAware ADS-B
Sun 06:42:33 PM -27.3270 153.1610 208° Southwest 153 176 800 -764 Descending FlightAware ADS-B
Sun 06:43:03 PM -27.3470 153.1500 206° Southwest 153 176 400 -800 Descending FlightAware ADS-B
Sun 06:43:28 PM -27.3630 153.1410 207° Southwest 150 173 -960 Descending FlightAware ADS-B
Sun 06:43:58 PM -27.3810 153.1310 206° Southwest 135 155  Level FlightAware ADS-B
Sun 06:44:23 PM -27.3890 153.1260 209° Southwest 44 51  Level FlightAware ADS-B
Sun 06:44:38 PM -27.3900 153.1240 241° Southwest 24 28  Level FlightAware ADS-B
Sun 06:44:53 PM -27.3910 153.1220 241° Southwest 22 25  Level FlightAware ADS-B
Sun 06:45:18 PM -27.3940 153.1210 196° South 21 24  Level FlightAware ADS-B
Sun 06:45:48 PM -27.3960 153.1200 204° Southwest 21 24  Level FlightAware ADS-B
Sun 06:46:18 PM -27.3990 153.1180 211° Southwest 24 28  Level FlightAware ADS-B
Sun 06:46:48 PM -27.4020 153.1170 196° South 20 23  Level FlightAware ADS-B
Sun 06:47:13 PM -27.4030 153.1150 241° Southwest 13 15  Level FlightAware ADS-B
Sun 06:48:33 PM -27.4010 153.1130 318° Northwest  Level FlightAware ADS-B
Sun 06:51:00 PM -27.3841 153.1176 227° Southwest  Level FlightAware Approximate

Login

Don't have an account? Register now (free) for customized features, flight alerts, and more!